sensor_id;sensor_type;location;lat;lon;timestamp;temperature;humidity
7044;DHT22;57890;52.36301240;9.76001620;2022-10-31T00:00:16;18.10;99.90
7044;DHT22;57890;52.36301240;9.76001620;2022-10-31T00:02:43;18.10;99.90
7044;DHT22;57890;52.36301240;9.76001620;2022-10-31T00:05:12;18.10;99.90
7044;DHT22;57890;52.36301240;9.76001620;2022-10-31T00:07:39;18.10;99.90
7044;DHT22;57890;52.36301240;9.76001620;2022-10-31T00:10:07;18.10;99.90
7044;DHT22;57890;52.36301240;9.76001620;2022-10-31T00:12:34;18.10;99.90
7044;DHT22;57890;52.36301240;9.76001620;2022-10-31T00:15:01;18.10;99.90
7044;DHT22;57890;52.36301240;9.76001620;2022-10-31T00:17:28;18.10;99.90
7044;DHT22;57890;52.36301240;9.76001620;2022-10-31T00:19:55;18.10;99.90
7044;DHT22;57890;52.36301240;9.76001620;2022-10-31T00:22:25;18.00;99.90
7044;DHT22;57890;52.36301240;9.76001620;2022-10-31T00:24:51;18.00;99.90
7044;DHT22;57890;52.36301240;9.76001620;2022-10-31T00:27:18;18.00;99.90
7044;DHT22;57890;52.36301240;9.76001620;2022-10-31T00:29:45;18.00;99.90
7044;DHT22;57890;52.36301240;9.76001620;2022-10-31T00:32:12;18.00;99.90
7044;DHT22;57890;52.36301240;9.76001620;2022-10-31T00:34:40;18.00;99.90
7044;DHT22;57890;52.36301240;9.76001620;2022-10-31T00:37:07;17.90;99.90
7044;DHT22;57890;52.36301240;9.76001620;2022-10-31T00:39:36;17.90;99.90
7044;DHT22;57890;52.36301240;9.76001620;2022-10-31T00:42:03;17.90;99.90
7044;DHT22;57890;52.36301240;9.76001620;2022-10-31T00:44:30;17.80;99.90
7044;DHT22;57890;52.36301240;9.76001620;2022-10-31T00:46:57;17.80;99.90
7044;DHT22;57890;52.36301240;9.76001620;2022-10-31T00:49:24;17.80;99.90
7044;DHT22;57890;52.36301240;9.76001620;2022-10-31T00:51:51;17.80;99.90
7044;DHT22;57890;52.36301240;9.76001620;2022-10-31T00:54:18;17.80;99.90
7044;DHT22;57890;52.36301240;9.76001620;2022-10-31T00:56:46;17.80;99.90
7044;DHT22;57890;52.36301240;9.76001620;2022-10-31T00:59:13;17.80;99.90
7044;DHT22;57890;52.36301240;9.76001620;2022-10-31T01:01:41;17.80;99.90
7044;DHT22;57890;52.36301240;9.76001620;2022-10-31T01:04:08;17.70;99.90
7044;DHT22;57890;52.36301240;9.76001620;2022-10-31T01:06:35;17.70;99.90
7044;DHT22;57890;52.36301240;9.76001620;2022-10-31T01:09:02;17.70;99.90
7044;DHT22;57890;52.36301240;9.76001620;2022-10-31T01:11:29;17.70;99.90
7044;DHT22;57890;52.36301240;9.76001620;2022-10-31T01:13:57;17.70;99.90
7044;DHT22;57890;52.36301240;9.76001620;2022-10-31T01:16:26;17.70;99.90
7044;DHT22;57890;52.36301240;9.76001620;2022-10-31T01:18:56;17.70;99.90
7044;DHT22;57890;52.36301240;9.76001620;2022-10-31T01:21:26;17.70;99.90
7044;DHT22;57890;52.36301240;9.76001620;2022-10-31T01:23:57;17.70;99.90
7044;DHT22;57890;52.36301240;9.76001620;2022-10-31T01:26:25;17.70;99.90
7044;DHT22;57890;52.36301240;9.76001620;2022-10-31T01:28:54;17.70;99.90
7044;DHT22;57890;52.36301240;9.76001620;2022-10-31T01:31:24;17.70;99.90
7044;DHT22;57890;52.36301240;9.76001620;2022-10-31T01:33:51;17.60;99.90
7044;DHT22;57890;52.36301240;9.76001620;2022-10-31T01:36:20;17.60;99.90
7044;DHT22;57890;52.36301240;9.76001620;2022-10-31T01:38:51;17.60;99.90
7044;DHT22;57890;52.36301240;9.76001620;2022-10-31T01:41:21;17.60;99.90
7044;DHT22;57890;52.36301240;9.76001620;2022-10-31T01:43:51;17.60;99.90
7044;DHT22;57890;52.36301240;9.76001620;2022-10-31T01:46:23;17.60;99.90
7044;DHT22;57890;52.36301240;9.76001620;2022-10-31T01:48:52;17.60;99.90
7044;DHT22;57890;52.36301240;9.76001620;2022-10-31T01:51:22;17.60;99.90
7044;DHT22;57890;52.36301240;9.76001620;2022-10-31T01:53:52;17.60;99.90
7044;DHT22;57890;52.36301240;9.76001620;2022-10-31T01:56:21;17.60;99.90
7044;DHT22;57890;52.36301240;9.76001620;2022-10-31T01:58:50;17.50;99.90
7044;DHT22;57890;52.36301240;9.76001620;2022-10-31T02:01:18;17.60;99.90
7044;DHT22;57890;52.36301240;9.76001620;2022-10-31T02:03:47;17.50;99.90
7044;DHT22;57890;52.36301240;9.76001620;2022-10-31T02:06:21;17.50;99.90
7044;DHT22;57890;52.36301240;9.76001620;2022-10-31T02:08:50;17.50;99.90
7044;DHT22;57890;52.36301240;9.76001620;2022-10-31T02:11:20;17.50;99.90
7044;DHT22;57890;52.36301240;9.76001620;2022-10-31T02:13:48;17.50;99.90
7044;DHT22;57890;52.36301240;9.76001620;2022-10-31T02:16:15;17.50;99.90
7044;DHT22;57890;52.36301240;9.76001620;2022-10-31T02:18:43;17.50;99.90
7044;DHT22;57890;52.36301240;9.76001620;2022-10-31T02:21:16;17.50;99.90
7044;DHT22;57890;52.36301240;9.76001620;2022-10-31T02:24:12;17.50;99.90
7044;DHT22;57890;52.36301240;9.76001620;2022-10-31T02:26:54;17.40;99.90
7044;DHT22;57890;52.36301240;9.76001620;2022-10-31T02:29:50;17.40;99.90
7044;DHT22;57890;52.36301240;9.76001620;2022-10-31T02:32:27;17.40;99.90
7044;DHT22;57890;52.36301240;9.76001620;2022-10-31T02:34:59;17.40;99.90
7044;DHT22;57890;52.36301240;9.76001620;2022-10-31T02:37:36;17.40;99.90
7044;DHT22;57890;52.36301240;9.76001620;2022-10-31T02:40:10;17.40;99.90
7044;DHT22;57890;52.36301240;9.76001620;2022-10-31T02:43:04;17.40;99.90
7044;DHT22;57890;52.36301240;9.76001620;2022-10-31T02:45:37;17.40;99.90
7044;DHT22;57890;52.36301240;9.76001620;2022-10-31T02:48:10;17.40;99.90
7044;DHT22;57890;52.36301240;9.76001620;2022-10-31T02:50:41;17.30;99.90
7044;DHT22;57890;52.36301240;9.76001620;2022-10-31T02:53:09;17.40;99.90
7044;DHT22;57890;52.36301240;9.76001620;2022-10-31T02:55:50;17.40;99.90
7044;DHT22;57890;52.36301240;9.76001620;2022-10-31T02:58:21;17.40;99.90
7044;DHT22;57890;52.36301240;9.76001620;2022-10-31T03:01:01;17.40;99.90
7044;DHT22;57890;52.36301240;9.76001620;2022-10-31T03:03:41;17.30;99.90
7044;DHT22;57890;52.36301240;9.76001620;2022-10-31T03:06:20;17.30;99.90
7044;DHT22;57890;52.36301240;9.76001620;2022-10-31T03:08:53;17.30;99.90
7044;DHT22;57890;52.36301240;9.76001620;2022-10-31T03:11:25;17.30;99.90
7044;DHT22;57890;52.36301240;9.76001620;2022-10-31T03:14:00;17.30;99.90
7044;DHT22;57890;52.36301240;9.76001620;2022-10-31T03:16:39;17.30;99.90
7044;DHT22;57890;52.36301240;9.76001620;2022-10-31T03:19:12;17.30;99.90
7044;DHT22;57890;52.36301240;9.76001620;2022-10-31T03:21:45;17.30;99.90
7044;DHT22;57890;52.36301240;9.76001620;2022-10-31T03:24:16;17.20;99.90
7044;DHT22;57890;52.36301240;9.76001620;2022-10-31T03:26:46;17.20;99.90
7044;DHT22;57890;52.36301240;9.76001620;2022-10-31T03:29:16;17.20;99.90
7044;DHT22;57890;52.36301240;9.76001620;2022-10-31T03:31:47;17.10;99.90
7044;DHT22;57890;52.36301240;9.76001620;2022-10-31T03:34:18;17.20;99.90
7044;DHT22;57890;52.36301240;9.76001620;2022-10-31T03:36:50;17.20;99.90
7044;DHT22;57890;52.36301240;9.76001620;2022-10-31T03:39:20;17.10;99.90
7044;DHT22;57890;52.36301240;9.76001620;2022-10-31T03:41:53;17.10;99.90
7044;DHT22;57890;52.36301240;9.76001620;2022-10-31T03:44:22;17.10;99.90
7044;DHT22;57890;52.36301240;9.76001620;2022-10-31T03:46:59;17.10;99.90
7044;DHT22;57890;52.36301240;9.76001620;2022-10-31T03:49:31;17.10;99.90
7044;DHT22;57890;52.36301240;9.76001620;2022-10-31T03:52:03;17.00;99.90
7044;DHT22;57890;52.36301240;9.76001620;2022-10-31T03:54:38;17.10;99.90
7044;DHT22;57890;52.36301240;9.76001620;2022-10-31T03:57:14;17.00;99.90
7044;DHT22;57890;52.36301240;9.76001620;2022-10-31T03:59:46;17.00;99.90
7044;DHT22;57890;52.36301240;9.76001620;2022-10-31T04:02:17;17.00;99.90
7044;DHT22;57890;52.36301240;9.76001620;2022-10-31T04:04:47;17.00;99.90
7044;DHT22;57890;52.36301240;9.76001620;2022-10-31T04:07:16;16.90;99.90
7044;DHT22;57890;52.36301240;9.76001620;2022-10-31T04:09:45;16.90;99.90
7044;DHT22;57890;52.36301240;9.76001620;2022-10-31T04:12:14;16.90;99.90
7044;DHT22;57890;52.36301240;9.76001620;2022-10-31T04:14:55;16.90;99.90
7044;DHT22;57890;52.36301240;9.76001620;2022-10-31T04:17:23;16.90;99.90
7044;DHT22;57890;52.36301240;9.76001620;2022-10-31T04:19:54;16.90;99.90
7044;DHT22;57890;52.36301240;9.76001620;2022-10-31T04:22:21;16.80;99.90
7044;DHT22;57890;52.36301240;9.76001620;2022-10-31T04:24:48;16.80;99.90
7044;DHT22;57890;52.36301240;9.76001620;2022-10-31T04:27:16;16.80;99.90
7044;DHT22;57890;52.36301240;9.76001620;2022-10-31T04:29:43;16.80;99.90
7044;DHT22;57890;52.36301240;9.76001620;2022-10-31T04:32:12;16.80;99.90
7044;DHT22;57890;52.36301240;9.76001620;2022-10-31T04:34:39;16.80;99.90
7044;DHT22;57890;52.36301240;9.76001620;2022-10-31T04:37:07;16.80;99.90
7044;DHT22;57890;52.36301240;9.76001620;2022-10-31T04:39:34;16.70;99.90
7044;DHT22;57890;52.36301240;9.76001620;2022-10-31T04:42:20;16.70;99.90
7044;DHT22;57890;52.36301240;9.76001620;2022-10-31T04:44:47;16.60;99.90
7044;DHT22;57890;52.36301240;9.76001620;2022-10-31T04:47:15;16.60;99.90
7044;DHT22;57890;52.36301240;9.76001620;2022-10-31T04:49:42;16.60;99.90
7044;DHT22;57890;52.36301240;9.76001620;2022-10-31T04:52:13;16.60;99.90
7044;DHT22;57890;52.36301240;9.76001620;2022-10-31T04:54:40;16.50;99.90
7044;DHT22;57890;52.36301240;9.76001620;2022-10-31T04:57:26;16.50;99.90
7044;DHT22;57890;52.36301240;9.76001620;2022-10-31T04:59:54;16.50;99.90
7044;DHT22;57890;52.36301240;9.76001620;2022-10-31T05:02:22;16.50;99.90
7044;DHT22;57890;52.36301240;9.76001620;2022-10-31T05:04:54;16.40;99.90
7044;DHT22;57890;52.36301240;9.76001620;2022-10-31T05:07:23;16.40;99.90
7044;DHT22;57890;52.36301240;9.76001620;2022-10-31T05:09:50;16.40;99.90
7044;DHT22;57890;52.36301240;9.76001620;2022-10-31T05:12:18;16.40;99.90
7044;DHT22;57890;52.36301240;9.76001620;2022-10-31T05:15:05;16.30;99.90
7044;DHT22;57890;52.36301240;9.76001620;2022-10-31T05:17:58;16.30;99.90
7044;DHT22;57890;52.36301240;9.76001620;2022-10-31T05:20:49;16.30;99.90
7044;DHT22;57890;52.36301240;9.76001620;2022-10-31T05:23:35;16.20;99.90
7044;DHT22;57890;52.36301240;9.76001620;2022-10-31T05:26:05;16.20;99.90
7044;DHT22;57890;52.36301240;9.76001620;2022-10-31T05:28:33;16.20;99.90
7044;DHT22;57890;52.36301240;9.76001620;2022-10-31T05:31:01;16.20;99.90
7044;DHT22;57890;52.36301240;9.76001620;2022-10-31T05:33:28;16.20;99.90
7044;DHT22;57890;52.36301240;9.76001620;2022-10-31T05:36:04;16.10;99.90
7044;DHT22;57890;52.36301240;9.76001620;2022-10-31T05:38:59;16.10;99.90
7044;DHT22;57890;52.36301240;9.76001620;2022-10-31T05:41:40;16.10;99.90
7044;DHT22;57890;52.36301240;9.76001620;2022-10-31T05:44:13;16.10;99.90
7044;DHT22;57890;52.36301240;9.76001620;2022-10-31T05:46:53;16.10;99.90
7044;DHT22;57890;52.36301240;9.76001620;2022-10-31T05:49:38;16.00;99.90
7044;DHT22;57890;52.36301240;9.76001620;2022-10-31T05:52:41;16.00;99.90
7044;DHT22;57890;52.36301240;9.76001620;2022-10-31T05:55:30;16.00;99.90
7044;DHT22;57890;52.36301240;9.76001620;2022-10-31T05:58:08;15.90;99.90
7044;DHT22;57890;52.36301240;9.76001620;2022-10-31T06:00:37;16.00;99.90
7044;DHT22;57890;52.36301240;9.76001620;2022-10-31T06:03:08;15.90;99.90
7044;DHT22;57890;52.36301240;9.76001620;2022-10-31T06:05:41;15.90;99.90
7044;DHT22;57890;52.36301240;9.76001620;2022-10-31T06:08:08;15.90;99.90
7044;DHT22;57890;52.36301240;9.76001620;2022-10-31T06:10:38;15.90;99.90
7044;DHT22;57890;52.36301240;9.76001620;2022-10-31T06:13:06;15.90;99.90
7044;DHT22;57890;52.36301240;9.76001620;2022-10-31T06:15:43;15.90;99.90
7044;DHT22;57890;52.36301240;9.76001620;2022-10-31T06:18:11;15.90;99.90
7044;DHT22;57890;52.36301240;9.76001620;2022-10-31T06:20:50;15.80;99.90
7044;DHT22;57890;52.36301240;9.76001620;2022-10-31T06:23:17;15.80;99.90
7044;DHT22;57890;52.36301240;9.76001620;2022-10-31T06:25:50;15.80;99.90
7044;DHT22;57890;52.36301240;9.76001620;2022-10-31T06:28:17;15.80;99.90
7044;DHT22;57890;52.36301240;9.76001620;2022-10-31T06:30:54;15.80;99.90
7044;DHT22;57890;52.36301240;9.76001620;2022-10-31T06:33:22;15.80;99.90
7044;DHT22;57890;52.36301240;9.76001620;2022-10-31T06:35:55;15.80;99.90
7044;DHT22;57890;52.36301240;9.76001620;2022-10-31T06:38:22;15.80;99.90
7044;DHT22;57890;52.36301240;9.76001620;2022-10-31T06:40:52;15.70;99.90
7044;DHT22;57890;52.36301240;9.76001620;2022-10-31T06:43:25;15.70;99.90
7044;DHT22;57890;52.36301240;9.76001620;2022-10-31T06:46:18;15.70;99.90
7044;DHT22;57890;52.36301240;9.76001620;2022-10-31T06:48:58;15.70;99.90
7044;DHT22;57890;52.36301240;9.76001620;2022-10-31T06:51:35;15.70;99.90
7044;DHT22;57890;52.36301240;9.76001620;2022-10-31T06:54:02;15.80;99.90
7044;DHT22;57890;52.36301240;9.76001620;2022-10-31T06:56:31;15.80;99.90
7044;DHT22;57890;52.36301240;9.76001620;2022-10-31T06:58:59;15.70;99.90
7044;DHT22;57890;52.36301240;9.76001620;2022-10-31T07:01:55;15.70;99.90
7044;DHT22;57890;52.36301240;9.76001620;2022-10-31T07:04:22;15.70;99.90
7044;DHT22;57890;52.36301240;9.76001620;2022-10-31T07:06:50;15.70;99.90
7044;DHT22;57890;52.36301240;9.76001620;2022-10-31T07:09:18;15.70;99.90
7044;DHT22;57890;52.36301240;9.76001620;2022-10-31T07:11:47;15.70;99.90
7044;DHT22;57890;52.36301240;9.76001620;2022-10-31T07:14:14;15.70;99.90
7044;DHT22;57890;52.36301240;9.76001620;2022-10-31T07:16:42;15.70;99.90
7044;DHT22;57890;52.36301240;9.76001620;2022-10-31T07:19:12;15.70;99.90
7044;DHT22;57890;52.36301240;9.76001620;2022-10-31T07:21:39;15.70;99.90
7044;DHT22;57890;52.36301240;9.76001620;2022-10-31T07:24:07;15.70;99.90
7044;DHT22;57890;52.36301240;9.76001620;2022-10-31T07:26:40;15.70;99.90
7044;DHT22;57890;52.36301240;9.76001620;2022-10-31T07:29:09;15.70;99.90
7044;DHT22;57890;52.36301240;9.76001620;2022-10-31T07:31:36;15.70;99.90
7044;DHT22;57890;52.36301240;9.76001620;2022-10-31T07:34:10;15.70;99.90
7044;DHT22;57890;52.36301240;9.76001620;2022-10-31T07:37:04;15.70;99.90
7044;DHT22;57890;52.36301240;9.76001620;2022-10-31T07:39:31;15.70;99.90
7044;DHT22;57890;52.36301240;9.76001620;2022-10-31T07:41:58;15.70;99.90
7044;DHT22;57890;52.36301240;9.76001620;2022-10-31T07:44:27;15.70;99.90
7044;DHT22;57890;52.36301240;9.76001620;2022-10-31T07:47:14;15.70;99.90
7044;DHT22;57890;52.36301240;9.76001620;2022-10-31T07:50:02;15.80;99.90
7044;DHT22;57890;52.36301240;9.76001620;2022-10-31T07:52:48;15.70;99.90
7044;DHT22;57890;52.36301240;9.76001620;2022-10-31T07:55:34;15.70;99.90
7044;DHT22;57890;52.36301240;9.76001620;2022-10-31T07:58:03;15.80;99.90
7044;DHT22;57890;52.36301240;9.76001620;2022-10-31T08:00:33;15.80;99.90
7044;DHT22;57890;52.36301240;9.76001620;2022-10-31T08:03:02;15.80;99.90
7044;DHT22;57890;52.36301240;9.76001620;2022-10-31T08:05:50;15.80;99.90
7044;DHT22;57890;52.36301240;9.76001620;2022-10-31T08:08:49;15.70;99.90
7044;DHT22;57890;52.36301240;9.76001620;2022-10-31T08:11:18;15.80;99.90
7044;DHT22;57890;52.36301240;9.76001620;2022-10-31T08:13:46;15.80;99.90
7044;DHT22;57890;52.36301240;9.76001620;2022-10-31T08:16:15;15.80;99.90
7044;DHT22;57890;52.36301240;9.76001620;2022-10-31T08:18:51;15.90;99.90
7044;DHT22;57890;52.36301240;9.76001620;2022-10-31T08:21:19;15.90;99.90
7044;DHT22;57890;52.36301240;9.76001620;2022-10-31T08:23:47;15.90;99.90
7044;DHT22;57890;52.36301240;9.76001620;2022-10-31T08:26:14;15.90;99.90
7044;DHT22;57890;52.36301240;9.76001620;2022-10-31T08:28:42;16.00;99.90
7044;DHT22;57890;52.36301240;9.76001620;2022-10-31T08:31:09;16.00;99.90
7044;DHT22;57890;52.36301240;9.76001620;2022-10-31T08:33:41;16.10;99.90
7044;DHT22;57890;52.36301240;9.76001620;2022-10-31T08:36:27;16.10;99.90
7044;DHT22;57890;52.36301240;9.76001620;2022-10-31T08:38:57;16.20;99.90
7044;DHT22;57890;52.36301240;9.76001620;2022-10-31T08:41:24;16.20;99.90
7044;DHT22;57890;52.36301240;9.76001620;2022-10-31T08:43:52;16.20;99.90
7044;DHT22;57890;52.36301240;9.76001620;2022-10-31T08:46:20;16.30;99.90
7044;DHT22;57890;52.36301240;9.76001620;2022-10-31T08:48:48;16.30;99.90
7044;DHT22;57890;52.36301240;9.76001620;2022-10-31T08:51:17;16.30;99.90
7044;DHT22;57890;52.36301240;9.76001620;2022-10-31T08:53:44;16.40;99.90
7044;DHT22;57890;52.36301240;9.76001620;2022-10-31T08:56:37;16.40;99.90
7044;DHT22;57890;52.36301240;9.76001620;2022-10-31T08:59:15;16.50;99.90
7044;DHT22;57890;52.36301240;9.76001620;2022-10-31T09:02:05;16.50;99.90
7044;DHT22;57890;52.36301240;9.76001620;2022-10-31T09:04:34;16.60;99.90
7044;DHT22;57890;52.36301240;9.76001620;2022-10-31T09:07:01;16.50;99.90
7044;DHT22;57890;52.36301240;9.76001620;2022-10-31T09:09:29;16.60;99.90
7044;DHT22;57890;52.36301240;9.76001620;2022-10-31T09:11:56;16.60;99.90
7044;DHT22;57890;52.36301240;9.76001620;2022-10-31T09:14:50;16.60;99.90
7044;DHT22;57890;52.36301240;9.76001620;2022-10-31T09:17:31;16.70;99.90
7044;DHT22;57890;52.36301240;9.76001620;2022-10-31T09:20:36;16.70;99.90
7044;DHT22;57890;52.36301240;9.76001620;2022-10-31T09:23:06;16.70;99.90
7044;DHT22;57890;52.36301240;9.76001620;2022-10-31T09:25:37;16.80;99.90
7044;DHT22;57890;52.36301240;9.76001620;2022-10-31T09:28:23;16.80;99.90
7044;DHT22;57890;52.36301240;9.76001620;2022-10-31T09:30:52;16.90;99.90
7044;DHT22;57890;52.36301240;9.76001620;2022-10-31T09:33:39;16.90;99.90
7044;DHT22;57890;52.36301240;9.76001620;2022-10-31T09:36:35;17.00;99.90
7044;DHT22;57890;52.36301240;9.76001620;2022-10-31T09:39:04;17.00;99.90
7044;DHT22;57890;52.36301240;9.76001620;2022-10-31T09:42:01;17.10;99.90
7044;DHT22;57890;52.36301240;9.76001620;2022-10-31T09:44:37;17.20;99.90
7044;DHT22;57890;52.36301240;9.76001620;2022-10-31T09:47:15;17.20;99.90
7044;DHT22;57890;52.36301240;9.76001620;2022-10-31T09:50:02;17.30;99.90
7044;DHT22;57890;52.36301240;9.76001620;2022-10-31T09:52:38;17.30;99.90
7044;DHT22;57890;52.36301240;9.76001620;2022-10-31T09:55:13;17.30;99.90
7044;DHT22;57890;52.36301240;9.76001620;2022-10-31T09:57:42;17.40;99.90
7044;DHT22;57890;52.36301240;9.76001620;2022-10-31T10:00:15;17.40;99.90
7044;DHT22;57890;52.36301240;9.76001620;2022-10-31T10:02:47;17.40;99.90
7044;DHT22;57890;52.36301240;9.76001620;2022-10-31T10:05:19;17.50;99.90
7044;DHT22;57890;52.36301240;9.76001620;2022-10-31T10:07:58;17.50;99.90
7044;DHT22;57890;52.36301240;9.76001620;2022-10-31T10:10:49;17.50;99.90
7044;DHT22;57890;52.36301240;9.76001620;2022-10-31T10:13:54;17.50;99.90
7044;DHT22;57890;52.36301240;9.76001620;2022-10-31T10:16:31;17.60;99.90
7044;DHT22;57890;52.36301240;9.76001620;2022-10-31T10:19:12;17.70;99.90
7044;DHT22;57890;52.36301240;9.76001620;2022-10-31T10:21:47;17.60;99.90
7044;DHT22;57890;52.36301240;9.76001620;2022-10-31T10:24:27;17.70;99.90
7044;DHT22;57890;52.36301240;9.76001620;2022-10-31T10:27:03;17.70;99.90
7044;DHT22;57890;52.36301240;9.76001620;2022-10-31T10:29:37;17.70;99.90
7044;DHT22;57890;52.36301240;9.76001620;2022-10-31T10:32:11;17.80;99.90
7044;DHT22;57890;52.36301240;9.76001620;2022-10-31T10:34:45;17.80;99.90
7044;DHT22;57890;52.36301240;9.76001620;2022-10-31T10:37:22;17.80;99.90
7044;DHT22;57890;52.36301240;9.76001620;2022-10-31T10:39:54;17.80;99.90
7044;DHT22;57890;52.36301240;9.76001620;2022-10-31T10:42:23;17.80;99.90
7044;DHT22;57890;52.36301240;9.76001620;2022-10-31T10:45:14;17.80;99.90
7044;DHT22;57890;52.36301240;9.76001620;2022-10-31T10:48:06;17.90;99.90
7044;DHT22;57890;52.36301240;9.76001620;2022-10-31T10:50:39;17.90;99.90
7044;DHT22;57890;52.36301240;9.76001620;2022-10-31T10:53:16;17.90;99.90
7044;DHT22;57890;52.36301240;9.76001620;2022-10-31T10:55:53;17.90;99.90
7044;DHT22;57890;52.36301240;9.76001620;2022-10-31T10:58:23;18.00;99.90
7044;DHT22;57890;52.36301240;9.76001620;2022-10-31T11:00:50;17.90;99.90
7044;DHT22;57890;52.36301240;9.76001620;2022-10-31T11:03:19;18.00;99.90
7044;DHT22;57890;52.36301240;9.76001620;2022-10-31T11:05:50;18.00;99.90
7044;DHT22;57890;52.36301240;9.76001620;2022-10-31T11:08:25;18.00;99.90
7044;DHT22;57890;52.36301240;9.76001620;2022-10-31T11:11:01;18.00;99.90
7044;DHT22;57890;52.36301240;9.76001620;2022-10-31T11:13:29;18.10;99.90
7044;DHT22;57890;52.36301240;9.76001620;2022-10-31T11:15:59;18.10;99.90
7044;DHT22;57890;52.36301240;9.76001620;2022-10-31T11:18:29;18.10;99.90
7044;DHT22;57890;52.36301240;9.76001620;2022-10-31T11:20:58;18.20;99.90
7044;DHT22;57890;52.36301240;9.76001620;2022-10-31T11:23:26;18.20;99.90
7044;DHT22;57890;52.36301240;9.76001620;2022-10-31T11:25:56;18.20;99.90
7044;DHT22;57890;52.36301240;9.76001620;2022-10-31T11:28:25;18.30;99.90
7044;DHT22;57890;52.36301240;9.76001620;2022-10-31T11:30:56;18.30;99.90
7044;DHT22;57890;52.36301240;9.76001620;2022-10-31T11:33:30;18.40;99.90
7044;DHT22;57890;52.36301240;9.76001620;2022-10-31T11:35:58;18.40;99.90
7044;DHT22;57890;52.36301240;9.76001620;2022-10-31T11:38:32;18.50;99.90
7044;DHT22;57890;52.36301240;9.76001620;2022-10-31T11:41:08;18.50;99.90
7044;DHT22;57890;52.36301240;9.76001620;2022-10-31T11:43:37;18.60;99.90
7044;DHT22;57890;52.36301240;9.76001620;2022-10-31T11:46:09;18.70;99.90
7044;DHT22;57890;52.36301240;9.76001620;2022-10-31T11:48:37;18.70;99.90
7044;DHT22;57890;52.36301240;9.76001620;2022-10-31T11:51:04;18.90;99.90
7044;DHT22;57890;52.36301240;9.76001620;2022-10-31T11:53:34;18.90;99.90
7044;DHT22;57890;52.36301240;9.76001620;2022-10-31T11:56:04;18.90;99.90
7044;DHT22;57890;52.36301240;9.76001620;2022-10-31T11:58:32;19.00;99.90
7044;DHT22;57890;52.36301240;9.76001620;2022-10-31T12:01:00;19.10;99.90
7044;DHT22;57890;52.36301240;9.76001620;2022-10-31T12:03:36;19.10;99.90
7044;DHT22;57890;52.36301240;9.76001620;2022-10-31T12:06:09;19.10;99.90
7044;DHT22;57890;52.36301240;9.76001620;2022-10-31T12:08:39;19.20;99.90
7044;DHT22;57890;52.36301240;9.76001620;2022-10-31T12:11:27;19.20;99.90
7044;DHT22;57890;52.36301240;9.76001620;2022-10-31T12:14:05;19.30;99.90
7044;DHT22;57890;52.36301240;9.76001620;2022-10-31T12:16:41;19.30;99.90
7044;DHT22;57890;52.36301240;9.76001620;2022-10-31T12:19:16;19.30;99.90
7044;DHT22;57890;52.36301240;9.76001620;2022-10-31T12:22:03;19.30;99.90
7044;DHT22;57890;52.36301240;9.76001620;2022-10-31T12:27:35;19.30;99.90
7044;DHT22;57890;52.36301240;9.76001620;2022-10-31T12:30:14;19.30;99.90
7044;DHT22;57890;52.36301240;9.76001620;2022-10-31T12:32:54;19.30;99.90
7044;DHT22;57890;52.36301240;9.76001620;2022-10-31T12:35:43;19.30;99.90
7044;DHT22;57890;52.36301240;9.76001620;2022-10-31T12:38:27;19.30;99.90
7044;DHT22;57890;52.36301240;9.76001620;2022-10-31T12:41:08;19.40;99.90
7044;DHT22;57890;52.36301240;9.76001620;2022-10-31T12:43:45;19.40;99.90
7044;DHT22;57890;52.36301240;9.76001620;2022-10-31T12:46:20;19.40;99.90
7044;DHT22;57890;52.36301240;9.76001620;2022-10-31T12:49:13;19.40;99.90
7044;DHT22;57890;52.36301240;9.76001620;2022-10-31T12:51:52;19.40;99.90
7044;DHT22;57890;52.36301240;9.76001620;2022-10-31T12:54:35;19.50;99.90
7044;DHT22;57890;52.36301240;9.76001620;2022-10-31T12:57:11;19.60;99.90
7044;DHT22;57890;52.36301240;9.76001620;2022-10-31T12:59:43;19.60;99.90
7044;DHT22;57890;52.36301240;9.76001620;2022-10-31T13:02:16;19.60;99.90
7044;DHT22;57890;52.36301240;9.76001620;2022-10-31T13:04:49;19.60;99.90
7044;DHT22;57890;52.36301240;9.76001620;2022-10-31T13:07:21;19.60;99.90
7044;DHT22;57890;52.36301240;9.76001620;2022-10-31T13:09:54;19.70;99.90
7044;DHT22;57890;52.36301240;9.76001620;2022-10-31T13:12:24;19.70;99.90
7044;DHT22;57890;52.36301240;9.76001620;2022-10-31T13:14:54;19.70;99.90
7044;DHT22;57890;52.36301240;9.76001620;2022-10-31T13:17:27;19.70;99.90
7044;DHT22;57890;52.36301240;9.76001620;2022-10-31T13:20:08;19.70;99.90
7044;DHT22;57890;52.36301240;9.76001620;2022-10-31T13:22:39;19.80;99.90
7044;DHT22;57890;52.36301240;9.76001620;2022-10-31T13:25:13;19.80;99.90
7044;DHT22;57890;52.36301240;9.76001620;2022-10-31T13:27:46;19.80;99.90
7044;DHT22;57890;52.36301240;9.76001620;2022-10-31T13:30:17;19.90;99.90
7044;DHT22;57890;52.36301240;9.76001620;2022-10-31T13:32:47;19.90;99.90
7044;DHT22;57890;52.36301240;9.76001620;2022-10-31T13:35:22;19.90;99.90
7044;DHT22;57890;52.36301240;9.76001620;2022-10-31T13:38:01;19.90;99.90
7044;DHT22;57890;52.36301240;9.76001620;2022-10-31T13:40:36;19.90;99.90
7044;DHT22;57890;52.36301240;9.76001620;2022-10-31T13:43:12;19.90;99.90
7044;DHT22;57890;52.36301240;9.76001620;2022-10-31T13:45:50;19.90;99.90
7044;DHT22;57890;52.36301240;9.76001620;2022-10-31T13:48:31;19.90;99.90
7044;DHT22;57890;52.36301240;9.76001620;2022-10-31T13:51:01;19.80;99.90
7044;DHT22;57890;52.36301240;9.76001620;2022-10-31T13:53:37;19.80;99.90
7044;DHT22;57890;52.36301240;9.76001620;2022-10-31T13:56:19;19.70;99.90
7044;DHT22;57890;52.36301240;9.76001620;2022-10-31T13:59:15;19.70;99.90
7044;DHT22;57890;52.36301240;9.76001620;2022-10-31T14:01:47;19.70;99.90
7044;DHT22;57890;52.36301240;9.76001620;2022-10-31T14:04:17;19.60;99.90
7044;DHT22;57890;52.36301240;9.76001620;2022-10-31T14:07:04;19.60;99.90
7044;DHT22;57890;52.36301240;9.76001620;2022-10-31T14:09:34;19.60;99.90
7044;DHT22;57890;52.36301240;9.76001620;2022-10-31T14:12:04;19.50;99.90